createdAt,value
2017-01-04T00:00:38.731Z,0.6
2017-01-04T00:01:41.678Z,0.6
2017-01-04T00:02:44.631Z,0.6
2017-01-04T00:03:48.105Z,0.6
2017-01-04T00:04:51.091Z,0.6
2017-01-04T00:05:54.545Z,0.6
2017-01-04T00:06:57.503Z,0.6
2017-01-04T00:08:00.455Z,0.6
2017-01-04T00:09:03.907Z,0.6
2017-01-04T00:10:06.863Z,0.6
2017-01-04T00:11:10.315Z,0.6
2017-01-04T00:12:13.261Z,0.6
2017-01-04T00:14:19.627Z,0.6
2017-01-04T00:15:22.588Z,0.6
2017-01-04T00:16:26.044Z,0.6
2017-01-04T00:17:28.996Z,0.6
2017-01-04T00:18:32.459Z,0.6
2017-01-04T00:19:35.407Z,0.6
2017-01-04T00:20:38.866Z,0.6
2017-01-04T00:21:41.812Z,0.6
2017-01-04T00:22:44.762Z,0.6
2017-01-04T00:23:48.214Z,0.7
2017-01-04T00:24:51.163Z,0.6
2017-01-04T00:25:54.618Z,0.7
2017-01-04T00:26:57.573Z,0.6
2017-01-04T00:28:01.025Z,0.7
2017-01-04T00:29:03.975Z,0.6
2017-01-04T00:30:06.931Z,0.6
2017-01-04T00:31:10.380Z,0.7
2017-01-04T00:32:13.327Z,0.6
2017-01-04T00:33:16.781Z,0.6
2017-01-04T00:34:19.725Z,0.7
2017-01-04T00:35:23.207Z,0.7
2017-01-04T00:36:26.161Z,0.7
2017-01-04T00:38:32.521Z,0.7
2017-01-04T00:39:35.476Z,0.7
2017-01-04T00:40:38.928Z,0.7
2017-01-04T00:41:41.874Z,0.7
2017-01-04T00:42:45.499Z,0.7
2017-01-04T00:43:48.456Z,0.7
2017-01-04T00:44:51.416Z,0.7
2017-01-04T00:45:54.871Z,0.7
2017-01-04T00:46:57.820Z,0.7
2017-01-04T00:48:00.773Z,0.7
2017-01-04T00:49:04.226Z,0.7
2017-01-04T00:50:07.173Z,0.7
2017-01-04T00:52:13.531Z,0.7
2017-01-04T00:53:16.985Z,0.7
2017-01-04T00:54:19.941Z,0.7
2017-01-04T00:56:26.303Z,0.7
2017-01-04T00:57:29.779Z,0.7
2017-01-04T00:58:32.807Z,0.7
2017-01-04T00:59:35.756Z,0.7
2017-01-04T01:00:39.210Z,0.7
2017-01-04T01:01:42.159Z,0.7
2017-01-04T01:02:45.103Z,0.8
2017-01-04T01:03:48.564Z,0.7
2017-01-04T01:04:51.580Z,0.7
2017-01-04T01:05:55.035Z,0.7
2017-01-04T01:06:57.988Z,0.7
2017-01-04T01:08:01.437Z,0.7
2017-01-04T01:09:04.384Z,0.7
2017-01-04T01:10:07.336Z,0.7
2017-01-04T01:11:10.796Z,0.7
2017-01-04T01:12:13.751Z,0.7
2017-01-04T01:13:17.203Z,0.7
2017-01-04T01:14:20.219Z,0.7
2017-01-04T01:15:23.202Z,0.7
2017-01-04T01:16:26.655Z,0.8
2017-01-04T01:17:29.609Z,0.8
2017-01-04T01:18:33.065Z,0.8
2017-01-04T01:19:36.017Z,0.8
2017-01-04T01:20:39.468Z,0.8
2017-01-04T01:21:42.417Z,0.7
2017-01-04T01:22:45.367Z,0.7
2017-01-04T01:23:48.857Z,0.7
2017-01-04T01:25:55.216Z,0.8
2017-01-04T01:26:58.160Z,0.8
2017-01-04T01:28:01.613Z,0.8
2017-01-04T01:29:04.570Z,0.8
2017-01-04T01:30:07.520Z,0.8
2017-01-04T01:31:10.974Z,0.8
2017-01-04T01:32:13.921Z,0.8
2017-01-04T01:33:17.375Z,0.8
2017-01-04T01:34:20.396Z,0.7
2017-01-04T01:35:23.856Z,0.8
2017-01-04T01:36:26.810Z,0.8
2017-01-04T01:37:29.759Z,0.8
2017-01-04T01:38:33.217Z,0.8
2017-01-04T01:39:36.170Z,0.8
2017-01-04T01:40:39.627Z,0.8
2017-01-04T01:41:42.580Z,0.8
2017-01-04T01:42:46.032Z,0.8
2017-01-04T01:43:48.982Z,0.8
2017-01-04T01:44:51.931Z,0.8
2017-01-04T01:45:55.381Z,0.8
2017-01-04T01:46:58.331Z,0.8
2017-01-04T01:48:01.781Z,0.8
2017-01-04T01:49:04.739Z,0.8
2017-01-04T01:50:08.191Z,0.8
2017-01-04T01:51:11.141Z,0.8
2017-01-04T01:52:14.589Z,0.8
2017-01-04T01:53:17.541Z,0.8
2017-01-04T01:54:20.492Z,0.8
2017-01-04T01:55:23.944Z,0.8
2017-01-04T01:56:26.895Z,0.8
2017-01-04T01:58:33.260Z,0.8
2017-01-04T01:59:36.709Z,0.8
2017-01-04T02:00:39.656Z,0.8
2017-01-04T02:01:43.111Z,0.8
2017-01-04T02:02:46.066Z,0.8
2017-01-04T02:03:49.587Z,0.8
2017-01-04T02:04:52.536Z,0.8
2017-01-04T02:05:55.488Z,0.8
2017-01-04T02:06:58.937Z,0.8
2017-01-04T02:08:01.891Z,0.8
2017-01-04T02:09:05.346Z,0.8
2017-01-04T02:10:08.299Z,0.8
2017-01-04T02:11:11.754Z,0.8
2017-01-04T02:12:14.708Z,0.8
2017-01-04T02:13:17.658Z,0.8
2017-01-04T02:14:21.138Z,0.8
2017-01-04T02:15:24.087Z,0.8
2017-01-04T02:16:27.543Z,0.8
2017-01-04T02:17:30.496Z,0.8
2017-01-04T02:18:33.944Z,0.8
2017-01-04T02:19:36.891Z,0.8
2017-01-04T02:20:39.838Z,0.8
2017-01-04T02:21:43.289Z,0.9
2017-01-04T02:22:46.244Z,0.9
2017-01-04T02:23:49.699Z,0.9
2017-01-04T02:24:52.652Z,0.9
2017-01-04T02:25:56.178Z,0.9
2017-01-04T02:26:59.132Z,0.9
2017-01-04T02:28:02.082Z,0.9
2017-01-04T02:29:05.532Z,0.9
2017-01-04T02:30:08.485Z,0.9
2017-01-04T02:31:11.938Z,0.9
2017-01-04T02:32:14.887Z,0.9
2017-01-04T02:33:18.341Z,0.9
2017-01-04T02:34:21.294Z,1
2017-01-04T02:35:24.751Z,1
2017-01-04T02:37:31.143Z,1
2017-01-04T02:38:34.092Z,0.9
2017-01-04T02:39:37.043Z,0.9
2017-01-04T02:40:40.494Z,0.9
2017-01-04T02:41:43.510Z,0.9
2017-01-04T02:42:46.996Z,0.9
2017-01-04T02:43:49.946Z,0.9
2017-01-04T02:44:52.897Z,0.9
2017-01-04T02:46:59.260Z,0.9
2017-01-04T02:48:02.714Z,0.9
2017-01-04T02:49:05.663Z,0.9
2017-01-04T02:50:09.114Z,1
2017-01-04T02:51:12.072Z,1
2017-01-04T02:52:15.524Z,0.9
2017-01-04T02:53:18.480Z,0.9
2017-01-04T02:54:21.936Z,0.9
2017-01-04T02:55:24.898Z,0.9
2017-01-04T02:56:27.845Z,0.9
2017-01-04T02:57:31.296Z,0.9
2017-01-04T02:58:34.254Z,0.9
2017-01-04T02:59:37.709Z,1
2017-01-04T03:01:44.072Z,1
2017-01-04T03:02:47.091Z,1
2017-01-04T03:03:50.575Z,1
2017-01-04T03:04:53.529Z,1
2017-01-04T03:05:56.477Z,1
2017-01-04T03:06:59.931Z,1
2017-01-04T03:08:02.880Z,1
2017-01-04T03:09:06.338Z,1
2017-01-04T03:10:09.291Z,1
2017-01-04T03:11:12.740Z,1
2017-01-04T03:12:15.690Z,1
2017-01-04T03:13:19.146Z,1
2017-01-04T03:14:22.095Z,1
2017-01-04T03:15:25.041Z,1
2017-01-04T03:16:28.491Z,1
2017-01-04T03:17:31.437Z,1
2017-01-04T03:18:34.891Z,1
2017-01-04T03:19:37.842Z,1
2017-01-04T03:20:41.293Z,1
2017-01-04T03:21:44.239Z,1
2017-01-04T03:22:47.691Z,1
2017-01-04T03:23:50.638Z,1
2017-01-04T03:24:54.093Z,1
2017-01-04T03:25:57.050Z,1
2017-01-04T03:27:00.502Z,1
2017-01-04T03:28:03.465Z,1
2017-01-04T03:29:06.599Z,1
2017-01-04T03:30:09.548Z,1
2017-01-04T03:31:13.085Z,1
2017-01-04T03:32:16.027Z,1
2017-01-04T03:33:19.470Z,1
2017-01-04T03:34:22.416Z,1
2017-01-04T03:35:25.864Z,1
2017-01-04T03:36:28.839Z,1
2017-01-04T03:37:32.291Z,1
2017-01-04T03:38:35.238Z,1
2017-01-04T03:39:38.180Z,1
2017-01-04T03:40:41.628Z,1
2017-01-04T03:41:44.569Z,1
2017-01-04T03:42:48.014Z,1
2017-01-04T03:43:50.957Z,1
2017-01-04T03:44:54.417Z,1.1
2017-01-04T03:45:57.360Z,1.1
2017-01-04T03:47:00.813Z,1.1
2017-01-04T03:48:03.755Z,1.1
2017-01-04T03:49:07.229Z,1.1
2017-01-04T03:50:10.176Z,1.1
2017-01-04T03:51:13.624Z,1.1
2017-01-04T03:52:16.567Z,1.1
2017-01-04T03:53:19.574Z,1.1
2017-01-04T03:54:23.099Z,1.1
2017-01-04T03:55:26.040Z,1
2017-01-04T03:56:29.489Z,1.1
2017-01-04T03:57:32.464Z,1.1
2017-01-04T03:58:35.416Z,1.1
2017-01-04T03:59:38.869Z,1.1
2017-01-04T04:11:13.922Z,1.1
2017-01-04T04:14:23.185Z,1.1
2017-01-04T04:15:26.631Z,1.1
2017-01-04T04:17:32.992Z,1.1
2017-01-04T04:18:35.942Z,1.1
2017-01-04T04:19:39.453Z,1.1
2017-01-04T04:20:42.395Z,1.1
2017-01-04T04:22:48.824Z,1.1
2017-01-04T04:23:51.770Z,1.1
2017-01-04T04:30:11.269Z,1.1
2017-01-04T04:31:14.212Z,1.1
2017-01-04T04:32:17.659Z,1.1
2017-01-04T04:33:20.601Z,1.1
2017-01-04T04:34:23.550Z,1.1
2017-01-04T04:35:26.996Z,1.1
2017-01-04T04:36:29.939Z,1.1
2017-01-04T04:37:33.389Z,1.1
2017-01-04T04:38:36.335Z,1.1
2017-01-04T04:39:39.781Z,1.1
2017-01-04T04:40:42.789Z,1.1
2017-01-04T04:41:46.241Z,1.1
2017-01-04T04:42:49.189Z,1.1
2017-01-04T04:43:52.809Z,1.1
2017-01-04T04:44:55.755Z,1.1
2017-01-04T04:45:58.698Z,1.2
2017-01-04T04:47:02.144Z,1.1
2017-01-04T04:48:05.091Z,1.1
2017-01-04T04:49:08.541Z,1.1
2017-01-04T04:50:11.485Z,1.1
2017-01-04T04:51:14.930Z,1.1
2017-01-04T04:52:17.876Z,1.1
2017-01-04T04:53:20.821Z,1.1
2017-01-04T04:55:27.185Z,1.1
2017-01-04T04:56:30.705Z,1.1
2017-01-04T04:57:33.646Z,1.2
2017-01-04T04:58:37.264Z,1.2
2017-01-04T04:59:40.203Z,1.2
2017-01-04T05:00:43.145Z,1.2
2017-01-04T05:01:46.597Z,1.2
2017-01-04T05:02:49.540Z,1.2
2017-01-04T05:04:55.898Z,1.2
2017-01-04T05:05:59.343Z,1.2
2017-01-04T05:07:02.285Z,1.2
2017-01-04T05:08:05.729Z,1.2
2017-01-04T05:09:08.681Z,1.2
2017-01-04T05:10:12.126Z,1.2
2017-01-04T05:12:18.482Z,1.2
2017-01-04T05:13:21.430Z,1.2
2017-01-04T05:14:24.881Z,1.2
2017-01-04T05:17:34.145Z,1.2
2017-01-04T05:19:40.507Z,1.2
2017-01-04T05:20:43.959Z,1.2
2017-01-04T05:21:46.903Z,1.2
2017-01-04T05:22:50.355Z,1.2
2017-01-04T05:23:53.296Z,1.2
2017-01-04T05:25:59.651Z,1.2
2017-01-04T05:27:03.097Z,1.2
2017-01-04T05:28:06.041Z,1.3
2017-01-04T05:29:09.524Z,1.3
2017-01-04T05:30:12.468Z,1.3
2017-01-04T05:31:15.414Z,1.2
2017-01-04T05:32:18.866Z,1.2
2017-01-04T05:33:21.811Z,1.2
2017-01-04T05:34:25.256Z,1.3
2017-01-04T05:35:28.204Z,1.2
2017-01-04T05:36:31.648Z,1.2
2017-01-04T05:37:34.590Z,1.2
2017-01-04T05:38:38.037Z,1.2
2017-01-04T05:39:40.983Z,1.3
2017-01-04T05:40:44.430Z,1.2
2017-01-04T05:41:47.372Z,1.3
2017-01-04T05:42:50.823Z,1.3
2017-01-04T05:43:53.768Z,1.3
2017-01-04T05:44:57.224Z,1.3
2017-01-04T05:46:00.171Z,1.3
2017-01-04T05:47:03.621Z,1.3
2017-01-04T05:48:06.570Z,1.2
2017-01-04T05:49:10.017Z,1.2
2017-01-04T05:50:12.958Z,1.2
2017-01-04T05:51:15.902Z,1.3
2017-01-04T05:52:19.350Z,1.2
2017-01-04T05:53:22.294Z,1.2
2017-01-04T05:54:25.740Z,1.2
2017-01-04T05:55:28.685Z,1.2
2017-01-04T05:57:35.042Z,1.2
2017-01-04T05:59:41.398Z,1.2
2017-01-04T06:00:45.022Z,1.2
2017-01-04T06:01:47.964Z,1.2
2017-01-04T06:02:50.915Z,1.2
2017-01-04T06:03:54.388Z,1.2
2017-01-04T06:04:57.329Z,1.2
2017-01-04T06:06:00.777Z,1.2
2017-01-04T06:07:03.784Z,1.2
2017-01-04T06:08:07.236Z,1.2
2017-01-04T06:09:10.181Z,1.3
2017-01-04T06:10:13.630Z,1.3
2017-01-04T06:11:16.638Z,1.2
2017-01-04T06:12:19.583Z,1.2
2017-01-04T06:13:23.037Z,1.2
2017-01-04T06:14:25.982Z,1.2
2017-01-04T06:15:29.437Z,1.2
2017-01-04T06:16:32.380Z,1.2
2017-01-04T06:17:35.827Z,1.2
2017-01-04T06:18:38.771Z,1.2
2017-01-04T06:19:42.215Z,1.2
2017-01-04T06:20:45.154Z,1.2
2017-01-04T06:21:48.597Z,1.2
2017-01-04T06:22:51.540Z,1.2
2017-01-04T06:23:54.988Z,1.2
2017-01-04T06:24:57.934Z,1.2
2017-01-04T06:26:01.381Z,1.2
2017-01-04T06:27:04.389Z,1.3
2017-01-04T06:28:07.336Z,1.3
2017-01-04T06:29:10.779Z,1.3
2017-01-04T06:30:13.729Z,1.2
2017-01-04T06:31:17.244Z,1.2
2017-01-04T06:33:23.601Z,1.2
2017-01-04T06:34:26.542Z,1.2
2017-01-04T06:35:29.987Z,1.2
2017-01-04T06:36:32.935Z,1.2
2017-01-04T06:37:36.380Z,1.2
2017-01-04T06:38:39.325Z,1.2
2017-01-04T06:39:42.773Z,1.3
2017-01-04T06:40:45.720Z,1.2
2017-01-04T06:41:48.666Z,1.2
2017-01-04T06:42:52.120Z,1.3
2017-01-04T06:43:55.065Z,1.2
2017-01-04T06:44:58.520Z,1.2
2017-01-04T06:46:01.462Z,1.2
2017-01-04T06:47:04.913Z,1.2
2017-01-04T06:48:07.855Z,1.2
2017-01-04T06:49:11.306Z,1.2
2017-01-04T06:50:14.248Z,1.3
2017-01-04T06:51:17.700Z,1.3
2017-01-04T06:52:20.709Z,1.3
2017-01-04T06:53:23.691Z,1.3
2017-01-04T06:54:27.134Z,1.3
2017-01-04T06:55:30.076Z,1.3
2017-01-04T06:57:36.435Z,1.3
2017-01-04T06:58:39.878Z,1.3
2017-01-04T06:59:42.889Z,1.3
2017-01-04T07:00:46.337Z,1.3
2017-01-04T07:01:49.277Z,1.3
2017-01-04T07:02:52.722Z,1.3
2017-01-04T07:03:55.668Z,1.3
2017-01-04T07:04:59.114Z,1.3
2017-01-04T07:06:02.067Z,1.3
2017-01-04T07:07:05.512Z,1.3
2017-01-04T07:08:08.456Z,1.3
2017-01-04T07:09:11.399Z,1.3
2017-01-04T07:10:14.848Z,1.3
2017-01-04T07:11:17.794Z,1.3
2017-01-04T07:12:21.238Z,1.3
2017-01-04T07:13:24.191Z,1.3
2017-01-04T07:14:27.638Z,1.3
2017-01-04T07:15:30.749Z,1.3
2017-01-04T07:16:33.690Z,1.3
2017-01-04T07:17:37.132Z,1.3
2017-01-04T07:18:40.076Z,1.3
2017-01-04T07:19:43.525Z,1.3
2017-01-04T07:20:46.476Z,1.3
2017-01-04T07:21:49.929Z,1.3
2017-01-04T07:22:52.873Z,1.3
2017-01-04T07:23:56.354Z,1.3
2017-01-04T07:24:59.305Z,1.3
2017-01-04T07:26:02.756Z,1.3
2017-01-04T07:27:05.702Z,1.3
2017-01-04T07:28:09.152Z,1.3
2017-01-04T07:29:12.095Z,1.3
2017-01-04T07:30:15.543Z,1.3
2017-01-04T07:31:18.482Z,1.3
2017-01-04T07:32:21.928Z,1.3
2017-01-04T07:33:24.871Z,1.3
2017-01-04T07:34:27.815Z,1.3
2017-01-04T07:35:31.259Z,1.3
2017-01-04T07:36:34.201Z,1.3
2017-01-04T07:37:37.654Z,1.3
2017-01-04T07:38:40.601Z,1.3
2017-01-04T07:39:44.053Z,1.3
2017-01-04T07:40:46.995Z,1.3
2017-01-04T07:41:50.440Z,1.3
2017-01-04T07:42:53.379Z,1.3
2017-01-04T07:43:56.827Z,1.3
2017-01-04T07:44:59.774Z,1.3
2017-01-04T07:46:03.221Z,1.3
2017-01-04T07:47:06.165Z,1.3
2017-01-04T07:48:09.675Z,1.3
2017-01-04T07:49:12.623Z,1.3
2017-01-04T07:51:18.977Z,1.3
2017-01-04T07:52:21.920Z,1.3
2017-01-04T07:53:25.371Z,1.3
2017-01-04T07:54:28.314Z,1.3
2017-01-04T07:55:31.763Z,1.3
2017-01-04T07:56:34.707Z,1.3
2017-01-04T07:57:38.154Z,1.3
2017-01-04T07:58:41.100Z,1.3
2017-01-04T07:59:44.570Z,1.3
2017-01-04T08:00:47.520Z,1.4
2017-01-04T08:01:50.974Z,1.4
2017-01-04T08:02:53.920Z,1.4
2017-01-04T08:03:57.364Z,1.4
2017-01-04T08:05:00.306Z,1.4
2017-01-04T08:06:03.752Z,1.4
2017-01-04T08:06:34.016Z,1.4
2017-01-04T08:07:06.765Z,1.4
2017-01-04T08:08:09.706Z,1.4
2017-01-04T08:09:13.152Z,1.4
2017-01-04T08:10:16.102Z,1.4
2017-01-04T08:11:19.550Z,1.4
2017-01-04T08:12:22.527Z,1.4
2017-01-04T08:13:25.979Z,1.4
2017-01-04T08:14:28.928Z,1.4
2017-01-04T08:15:32.369Z,1.4
2017-01-04T08:16:35.314Z,1.4
2017-01-04T08:17:38.769Z,1.5
2017-01-04T08:18:41.740Z,1.5
2017-01-04T08:19:45.185Z,1.5
2017-01-04T08:20:48.128Z,1.5
2017-01-04T08:21:51.577Z,1.5
2017-01-04T08:22:54.583Z,1.6
2017-01-04T08:23:57.531Z,1.6
2017-01-04T08:25:00.978Z,1.6
2017-01-04T08:26:04.093Z,1.5
2017-01-04T08:27:07.541Z,1.6
2017-01-04T08:28:10.484Z,1.6
2017-01-04T08:29:13.426Z,1.6
2017-01-04T08:30:16.906Z,1.6
2017-01-04T08:31:19.853Z,1.6
2017-01-04T08:32:23.299Z,1.6
2017-01-04T08:34:29.718Z,1.6
2017-01-04T08:35:32.664Z,1.6
2017-01-04T08:36:36.114Z,1.6
2017-01-04T08:37:39.057Z,1.6
2017-01-04T08:38:42.505Z,1.6
2017-01-04T08:39:45.450Z,1.6
2017-01-04T08:40:48.900Z,1.6
2017-01-04T08:41:51.850Z,1.6
2017-01-04T08:42:55.297Z,1.6
2017-01-04T08:43:58.241Z,1.6
2017-01-04T08:45:01.688Z,1.6
2017-01-04T08:46:04.636Z,1.6
2017-01-04T08:47:08.084Z,1.6
2017-01-04T08:48:11.026Z,1.6
2017-01-04T08:49:14.473Z,1.6
2017-01-04T08:50:17.426Z,1.6
2017-01-04T08:51:20.874Z,1.6
2017-01-04T08:52:23.817Z,1.6
2017-01-04T08:53:27.269Z,1.5
2017-01-04T08:54:30.224Z,1.6
2017-01-04T08:55:33.177Z,1.6
2017-01-04T08:58:42.948Z,1.6
2017-01-04T08:59:46.391Z,1.6
2017-01-04T09:00:49.336Z,1.6
2017-01-04T09:01:52.780Z,1.6
2017-01-04T09:02:55.724Z,1.6
2017-01-04T09:03:59.338Z,1.6
2017-01-04T09:05:02.284Z,1.6
2017-01-04T09:06:05.224Z,1.6
2017-01-04T09:07:08.667Z,1.6
2017-01-04T09:09:15.021Z,1.6
2017-01-04T09:10:17.963Z,1.6
2017-01-04T09:11:21.405Z,1.6
2017-01-04T09:12:24.344Z,1.6
2017-01-04T09:13:27.787Z,1.6
2017-01-04T09:14:30.731Z,1.6
2017-01-04T09:15:34.176Z,1.6
2017-01-04T09:16:37.122Z,1.6
2017-01-04T09:18:43.477Z,1.6
2017-01-04T09:19:46.928Z,1.6
2017-01-04T09:20:49.885Z,1.6
2017-01-04T09:22:56.259Z,1.6
2017-01-04T09:23:59.706Z,1.6
2017-01-04T09:25:02.652Z,1.6
2017-01-04T09:26:06.101Z,1.6
2017-01-04T09:27:09.044Z,1.6
2017-01-04T09:28:12.499Z,1.6
2017-01-04T09:29:15.442Z,1.7
2017-01-04T09:30:18.889Z,1.7
2017-01-04T09:31:21.830Z,1.7
2017-01-04T09:32:25.281Z,1.7
2017-01-04T09:33:28.229Z,1.7
2017-01-04T09:34:31.678Z,1.7
2017-01-04T09:35:34.623Z,1.7
2017-01-04T09:36:38.067Z,1.7
2017-01-04T09:37:41.014Z,1.7
2017-01-04T09:38:44.120Z,1.7
2017-01-04T09:39:47.580Z,1.8
2017-01-04T09:40:50.526Z,1.8
2017-01-04T09:41:53.975Z,1.8
2017-01-04T09:42:56.921Z,1.8
2017-01-04T09:44:00.365Z,1.8
2017-01-04T09:45:03.317Z,1.8
2017-01-04T09:46:06.763Z,1.8
2017-01-04T09:47:09.704Z,1.8
2017-01-04T09:48:13.152Z,1.8
2017-01-04T09:49:16.166Z,1.8
2017-01-04T09:50:19.618Z,1.8
2017-01-04T09:51:22.562Z,1.8
2017-01-04T09:52:26.005Z,1.8
2017-01-04T09:53:29.017Z,1.8
2017-01-04T09:54:32.463Z,1.8
2017-01-04T09:55:35.402Z,1.8
2017-01-04T09:56:38.913Z,1.9
2017-01-04T09:57:41.863Z,1.8
2017-01-04T09:58:44.808Z,1.9
2017-01-04T09:59:48.255Z,1.9
2017-01-04T10:00:51.201Z,1.9
2017-01-04T10:01:54.650Z,1.9
2017-01-04T10:02:57.600Z,1.9
2017-01-04T10:04:01.055Z,1.9
2017-01-04T10:05:03.998Z,2
2017-01-04T10:06:07.443Z,2
2017-01-04T10:07:11.054Z,2
2017-01-04T10:08:13.999Z,2
2017-01-04T10:09:16.948Z,2
2017-01-04T10:10:20.390Z,2
2017-01-04T10:11:23.337Z,2
2017-01-04T10:12:26.785Z,2
2017-01-04T10:13:29.727Z,2
2017-01-04T10:14:33.177Z,2
2017-01-04T10:15:36.125Z,2
2017-01-04T10:16:39.574Z,2
2017-01-04T10:17:42.687Z,2
2017-01-04T10:18:45.639Z,2
2017-01-04T10:20:52.501Z,2
2017-01-04T10:21:55.448Z,2
2017-01-04T10:22:58.896Z,2
2017-01-04T10:24:01.841Z,2
2017-01-04T10:25:05.292Z,1.9
2017-01-04T10:26:08.237Z,1.9
2017-01-04T10:27:11.687Z,1.9
2017-01-04T10:28:14.636Z,1.9
2017-01-04T10:29:18.084Z,1.9
2017-01-04T10:30:21.032Z,1.9
2017-01-04T10:31:24.479Z,1.9
2017-01-04T10:32:27.425Z,1.9
2017-01-04T10:33:30.891Z,1.9
2017-01-04T10:34:33.838Z,1.9
2017-01-04T10:35:37.285Z,1.8
2017-01-04T10:36:40.229Z,1.8
2017-01-04T10:37:43.677Z,1.8
2017-01-04T10:38:46.623Z,1.8
2017-01-04T10:39:50.075Z,1.8
2017-01-04T10:40:53.017Z,1.8
2017-01-04T10:41:56.461Z,1.8
2017-01-04T10:42:59.430Z,1.8
2017-01-04T10:44:02.877Z,1.7
2017-01-04T10:45:05.819Z,1.7
2017-01-04T10:46:09.266Z,1.6
2017-01-04T10:47:12.213Z,1.6
2017-01-04T10:48:15.661Z,1.6
2017-01-04T10:49:18.602Z,1.5
2017-01-04T10:50:22.052Z,1.5
2017-01-04T10:51:24.994Z,1.5
2017-01-04T10:52:28.442Z,1.5
2017-01-04T10:53:31.386Z,1.5
2017-01-04T10:54:34.831Z,1.5
2017-01-04T10:55:37.775Z,1.6
2017-01-04T10:57:44.130Z,1.6
2017-01-04T10:58:47.575Z,1.6
2017-01-04T10:59:50.523Z,1.6
2017-01-04T11:00:53.977Z,1.6
2017-01-04T11:01:56.927Z,1.6
2017-01-04T11:03:00.371Z,1.6
2017-01-04T11:04:03.315Z,1.6
2017-01-04T11:05:06.260Z,1.6
2017-01-04T11:06:09.707Z,1.6
2017-01-04T11:07:12.647Z,1.6
2017-01-04T11:08:16.094Z,1.6
2017-01-04T11:09:19.038Z,1.6
2017-01-04T11:10:22.487Z,1.7
2017-01-04T11:12:28.841Z,1.7
2017-01-04T11:13:31.780Z,1.7
2017-01-04T11:14:35.227Z,1.7
2017-01-04T11:15:38.171Z,1.7
2017-01-04T11:16:41.622Z,1.7
2017-01-04T11:17:44.562Z,1.8
2017-01-04T11:18:48.008Z,1.8
2017-01-04T11:19:50.947Z,1.8
2017-01-04T11:20:54.391Z,1.8
2017-01-04T11:21:57.332Z,1.8
2017-01-04T11:23:00.951Z,1.8
2017-01-04T11:24:03.892Z,1.8
2017-01-04T11:25:06.833Z,1.8
2017-01-04T11:26:10.289Z,1.8
2017-01-04T11:27:13.232Z,1.8
2017-01-04T11:28:16.679Z,1.8
2017-01-04T11:29:19.618Z,1.8
2017-01-04T11:30:23.071Z,1.8
2017-01-04T11:31:26.015Z,1.8
2017-01-04T11:32:29.469Z,1.8
2017-01-04T11:33:32.411Z,1.8
2017-01-04T11:34:35.862Z,1.8
2017-01-04T11:35:38.806Z,1.8
2017-01-04T11:36:42.256Z,1.8
2017-01-04T11:37:45.202Z,1.8
2017-01-04T11:38:48.659Z,1.8
2017-01-04T11:39:51.603Z,1.8
2017-01-04T11:40:55.048Z,1.8
2017-01-04T11:41:57.993Z,1.8
2017-01-04T11:43:01.448Z,1.8
2017-01-04T11:44:04.392Z,1.8
2017-01-04T11:45:07.900Z,1.8
2017-01-04T11:46:10.842Z,1.8
2017-01-04T11:47:13.783Z,1.8
2017-01-04T11:48:17.232Z,1.8
2017-01-04T11:49:20.180Z,1.8
2017-01-04T11:50:23.634Z,1.8
2017-01-04T11:51:26.578Z,1.8
2017-01-04T11:52:30.024Z,1.8
2017-01-04T11:53:32.966Z,1.8
2017-01-04T11:54:36.410Z,1.8
2017-01-04T11:55:39.352Z,1.8
2017-01-04T11:56:42.797Z,1.8
2017-01-04T11:57:45.738Z,1.8
2017-01-04T11:58:49.186Z,1.8
2017-01-04T11:59:52.132Z,1.9
2017-01-04T12:00:55.582Z,1.9
2017-01-04T12:01:58.680Z,1.9
2017-01-04T12:03:01.622Z,1.9
2017-01-04T12:04:05.088Z,2
2017-01-04T12:05:08.030Z,2
2017-01-04T12:06:11.479Z,2
2017-01-04T12:07:14.421Z,2
2017-01-04T12:08:17.930Z,2
2017-01-04T12:09:20.877Z,2
2017-01-04T12:10:24.325Z,2
2017-01-04T12:11:27.272Z,2
2017-01-04T12:12:30.719Z,2
2017-01-04T12:13:33.664Z,2
2017-01-04T12:14:37.107Z,2
2017-01-04T12:16:43.462Z,2
2017-01-04T12:17:46.414Z,2
2017-01-04T12:18:49.864Z,2
2017-01-04T12:19:52.812Z,2
2017-01-04T12:20:56.257Z,2
2017-01-04T12:21:59.209Z,2
2017-01-04T12:23:02.659Z,2
2017-01-04T12:24:05.603Z,2
2017-01-04T12:25:09.053Z,2
2017-01-04T12:26:12.001Z,2
2017-01-04T12:27:15.452Z,2
2017-01-04T12:28:18.427Z,2
2017-01-04T12:29:21.873Z,2
2017-01-04T12:30:24.821Z,2
2017-01-04T12:31:28.270Z,2
2017-01-04T12:32:31.219Z,2
2017-01-04T12:33:34.668Z,2
2017-01-04T12:34:37.615Z,2
2017-01-04T12:35:41.126Z,2
2017-01-04T12:36:44.070Z,2
2017-01-04T12:37:47.683Z,2
2017-01-04T12:38:50.632Z,2
2017-01-04T12:39:53.579Z,2
2017-01-04T12:40:57.036Z,2
2017-01-04T12:42:00.046Z,2
2017-01-04T12:44:06.402Z,2.1
2017-01-04T12:45:09.848Z,2
2017-01-04T12:47:16.202Z,2
2017-01-04T12:48:19.147Z,2
2017-01-04T12:49:22.626Z,2
2017-01-04T12:50:25.571Z,2
2017-01-04T12:51:29.016Z,2
2017-01-04T12:52:31.960Z,2
2017-01-04T12:53:35.409Z,2
2017-01-04T12:54:38.353Z,2
2017-01-04T12:56:44.707Z,2
2017-01-04T12:57:48.156Z,2
2017-01-04T12:58:51.101Z,2
2017-01-04T12:59:54.568Z,2
2017-01-04T13:00:57.542Z,2
2017-01-04T13:02:01.016Z,2
2017-01-04T13:03:03.990Z,2
2017-01-04T13:04:07.465Z,2
2017-01-04T13:05:10.439Z,2
2017-01-04T13:06:13.911Z,2
2017-01-04T13:07:16.883Z,2
2017-01-04T13:08:20.355Z,2
2017-01-04T13:08:50.619Z,2
2017-01-04T13:09:23.391Z,2
2017-01-04T13:10:26.359Z,2
2017-01-04T13:11:29.835Z,2
2017-01-04T13:12:32.804Z,2
2017-01-04T13:13:36.278Z,2
2017-01-04T13:14:39.252Z,2
2017-01-04T13:15:42.723Z,2
2017-01-04T13:16:45.696Z,2
2017-01-04T13:17:48.669Z,2
2017-01-04T13:18:52.146Z,2
2017-01-04T13:19:55.120Z,2
2017-01-04T13:20:58.595Z,2
2017-01-04T13:22:01.604Z,2
2017-01-04T13:23:05.075Z,2
2017-01-04T13:24:08.050Z,2
2017-01-04T13:25:11.525Z,2
2017-01-04T13:26:14.494Z,2
2017-01-04T13:27:17.470Z,2
2017-01-04T13:28:20.941Z,2
2017-01-04T13:29:23.905Z,2
2017-01-04T13:31:30.283Z,2
2017-01-04T13:32:33.759Z,2
2017-01-04T13:33:36.732Z,2
2017-01-04T13:34:40.210Z,1.9
2017-01-04T13:35:43.178Z,1.9
2017-01-04T13:36:46.653Z,1.9
2017-01-04T13:37:49.623Z,1.9
2017-01-04T13:38:52.594Z,1.9
2017-01-04T13:39:56.069Z,1.9
2017-01-04T13:40:59.038Z,1.9
2017-01-04T13:42:02.511Z,1.9
2017-01-04T13:43:05.736Z,1.9
2017-01-04T13:44:08.718Z,1.9
2017-01-04T13:45:12.195Z,1.9
2017-01-04T13:46:15.171Z,1.9
2017-01-04T13:47:18.142Z,1.9
2017-01-04T13:48:21.612Z,1.9
2017-01-04T13:49:24.575Z,1.9
2017-01-04T13:50:28.053Z,2
2017-01-04T13:51:31.022Z,2
2017-01-04T13:52:34.497Z,2
2017-01-04T13:53:37.465Z,2
2017-01-04T13:54:40.433Z,2
2017-01-04T13:55:43.903Z,2
2017-01-04T13:56:46.882Z,2
2017-01-04T13:57:50.359Z,2
2017-01-04T13:58:53.331Z,2
2017-01-04T13:59:56.803Z,2
2017-01-04T14:00:59.774Z,2
2017-01-04T14:02:02.744Z,2
2017-01-04T14:03:06.218Z,2
2017-01-04T14:04:09.189Z,2
2017-01-04T14:05:12.663Z,2
2017-01-04T14:06:15.634Z,2
2017-01-04T14:07:19.103Z,2
2017-01-04T14:08:22.068Z,2
2017-01-04T14:09:25.542Z,2
2017-01-04T14:10:28.508Z,2
2017-01-04T14:11:31.485Z,2
2017-01-04T14:12:34.956Z,2
2017-01-04T14:13:37.926Z,2
2017-01-04T14:14:41.397Z,2
2017-01-04T14:15:44.370Z,2
2017-01-04T14:16:47.842Z,2
2017-01-04T14:17:50.993Z,2
2017-01-04T14:18:53.963Z,2
2017-01-04T14:19:57.439Z,2
2017-01-04T14:22:03.825Z,2
2017-01-04T14:23:06.795Z,2
2017-01-04T14:24:10.318Z,2
2017-01-04T14:25:13.282Z,2
2017-01-04T14:26:16.249Z,1.9
2017-01-04T14:27:19.716Z,1.9
2017-01-04T14:28:22.684Z,1.9
2017-01-04T14:29:26.156Z,1.9
2017-01-04T14:31:32.541Z,1.9
2017-01-04T14:32:35.516Z,1.9
2017-01-04T14:33:38.517Z,1.9
2017-01-04T14:34:41.993Z,1.9
2017-01-04T14:35:44.965Z,1.9
2017-01-04T14:36:48.437Z,1.9
2017-01-04T14:37:51.574Z,1.9
2017-01-04T14:38:54.542Z,1.9
2017-01-04T14:39:58.016Z,1.9
2017-01-04T14:42:04.398Z,2
2017-01-04T14:43:07.365Z,2
2017-01-04T14:44:10.845Z,1.9
2017-01-04T14:45:13.813Z,2
2017-01-04T14:46:16.785Z,2
2017-01-04T14:47:20.258Z,2
2017-01-04T14:48:23.227Z,2
2017-01-04T14:49:26.695Z,2
2017-01-04T14:50:29.665Z,2
2017-01-04T14:51:33.138Z,2
2017-01-04T14:52:36.104Z,2
2017-01-04T14:53:39.579Z,1.9
2017-01-04T14:54:42.549Z,1.9
2017-01-04T14:55:45.515Z,1.9
2017-01-04T14:56:48.993Z,2
2017-01-04T14:57:51.965Z,2
2017-01-04T14:58:55.103Z,2
2017-01-04T14:59:58.576Z,2
2017-01-04T15:01:01.550Z,2
2017-01-04T15:02:05.030Z,2
2017-01-04T15:03:07.998Z,2
2017-01-04T15:04:11.474Z,2
2017-01-04T15:05:14.447Z,2
2017-01-04T15:06:17.417Z,2
2017-01-04T15:07:20.886Z,2
2017-01-04T15:08:23.855Z,2
2017-01-04T15:09:27.329Z,2
2017-01-04T15:10:30.298Z,2
2017-01-04T15:11:33.774Z,2
2017-01-04T15:12:36.744Z,2
2017-01-04T15:13:39.720Z,2
2017-01-04T15:14:43.195Z,2
2017-01-04T15:15:46.170Z,2
2017-01-04T15:16:49.640Z,2
2017-01-04T15:17:52.614Z,2
2017-01-04T15:18:56.096Z,2
2017-01-04T15:19:59.069Z,2
2017-01-04T15:21:02.050Z,2
2017-01-04T15:22:05.521Z,2
2017-01-04T15:23:08.487Z,2
2017-01-04T15:24:11.965Z,2
2017-01-04T15:25:15.110Z,2
2017-01-04T15:26:18.089Z,2
2017-01-04T15:27:21.569Z,2
2017-01-04T15:28:24.534Z,2
2017-01-04T15:29:28.012Z,2
2017-01-04T15:30:30.983Z,2
2017-01-04T15:31:33.950Z,2
2017-01-04T15:32:37.423Z,2
2017-01-04T15:33:40.395Z,2
2017-01-04T15:34:43.864Z,2
2017-01-04T15:35:46.834Z,2
2017-01-04T15:36:50.305Z,2
2017-01-04T15:37:53.276Z,2
2017-01-04T15:39:59.657Z,2
2017-01-04T15:41:03.139Z,2
2017-01-04T15:42:06.109Z,2
2017-01-04T15:43:09.076Z,1.9
2017-01-04T15:44:12.548Z,2
2017-01-04T15:45:15.518Z,1.9
2017-01-04T15:46:18.991Z,1.9